Portada
METAR-TAF:

METAR-TAF

Aeroports :

Besiers, França

latitud: 43-19N, longitud: 003-21E, altitud: 17 m

Observació

L'informe es va fer fa 6 hores i 40 minuts, a les 05:00 UTC
Vent 6 kt del Oest
Temperatura 21°C
Humitat 69%
Pressió 1016 hPa
Visibilitat 10 km o més
sense núvols per sota de 1500 mi sense presència de cumulonimbus.

METAR: LFMU 210500Z AUTO 28006KT CAVOK 21/15 Q1016 NOSIG

Hora: 13:40 (11:40 UTC)

Pronòstic

L'informe es va fer fa 9 hores i 40 minuts, a les 02:00 UTC
Pronòstic vàlid del 21 a les 03 UTC al 22 a les 03 UTC
Vent 10 kt del Oest
Visibilitat 10 km o més
sense núvols per sota de 1500 mi sense presència de cumulonimbus.
Evolucionant progressivament
l' 21 a les 09 UTC al 21 a les 12 UTC
Vent 10 kt del Sud-Est

TAF: LFMU 210200Z 2103/2203 28010KT CAVOK BECMG 2109/2112 14010KT

Observacions i pronòstics meteorològics de més de 4000 aeroports (METAR i TAF).

Les estacions disponibles són els punts grocs i vermells al mapa.

Posi el ratolí al punt desitjat per veure el nom de l'estació.

Feu clic per veure les observacions i els pronòstics meteorològics.

Per canviar el mapa: feu clic els botons verds amb una creu de color negre per apropar; al botó verd amb un guió per allunyar la imatge; o en les fletxes verdes per a mapes adjacents.


METAR-TAF: